x

9063053 - Fairport, Oh (faio1) Weather Station

11:54pm - Mon 20th Oct 2014 All times are CDT. -5 hours from GMT.

  • Wind
    14mph, 15mph gusts
  • Air Temp 55°f
  • Sea Pressure 1009mb
  • 9063053 - Fairport, Oh
  • 9063053 - Fairport, Oh

More Historic Weather Station data

Upgrade to MSW Pro to gain access to the past 30 days of data for over 8000 Wavebouys and Weather Stations around the globe.

Join Pro

Comparision Forecast

View Surf forecast
   
Mon 10/20 11:54pm 14 15 mph 1009mb 55f
11:48pm 15 17 mph 1009mb 55f
11:42pm 15 17 mph 1009mb 55f
11:36pm 16 18 mph 1009mb 55f
11:30pm 17 18 mph 1008.9mb 55f
11:24pm 18 20 mph 1009mb 55f
11:18pm 17 20 mph 1009mb 55f
11:12pm 17 20 mph 1009mb 55f
11:06pm 18 21 mph 1008.9mb 55f
11:00pm 20 21 mph 1009mb 55f
10:54pm 18 21 mph 1009mb 56f
10:48pm 21 22 mph 1009mb 56f
10:42pm 22 25 mph 1009mb 55f
10:36pm 20 22 mph 1009mb 56f
10:30pm 20 23 mph 1009.1mb 55f
10:24pm 20 22 mph 1009.1mb 56f
10:18pm 18 21 mph 1009.1mb 55f
10:12pm 17 21 mph 1009.1mb 55f
10:06pm 18 22 mph 1009.2mb 55f
8:12pm 20 23 mph - -
8:06pm 20 24 mph - -
8:00pm 22 24 mph - -
7:54pm 21 25 mph - -
7:48pm  -  mph - 54f
7:42pm  -  mph - 54f
7:36pm  -  mph - 53f
7:30pm 15 18 mph 1009.2mb 53f
7:24pm 11 14 mph 1009.2mb 53f
7:18pm 9 15 mph 1009.2mb 53f
7:12pm 11 17 mph 1009.2mb 53f
7:06pm 11 16 mph 1009.1mb 53f
7:00pm 13 16 mph 1009.1mb 53f
6:54pm 13 15 mph 1009.1mb 53f
6:48pm 10 15 mph 1009.1mb 53f
6:42pm 10 15 mph 1009.1mb 54f
6:36pm 13 18 mph 1009.1mb 54f
6:30pm 16 20 mph 1009.2mb 54f
6:24pm 16 21 mph 1009.1mb 54f
6:18pm 17 24 mph 1009.1mb 54f
6:12pm 20 23 mph 1009.1mb 54f
6:06pm 21 24 mph 1009.1mb 54f
6:00pm 17 22 mph 1009.1mb 54f
5:54pm 10 14 mph 1009mb 54f
5:48pm 11 14 mph 1009mb 54f
5:42pm 10 14 mph 1009mb 54f
5:36pm 10 15 mph 1008.9mb 54f
5:30pm 7 8 mph 1008.8mb 53f
5:24pm 7 8 mph 1008.7mb 53f
5:18pm 6 8 mph 1008.6mb 53f
5:12pm 8 9 mph 1008.6mb 53f
5:06pm 8 11 mph 1008.6mb 54f
5:00pm 8 11 mph 1008.6mb 54f
4:54pm 9 13 mph 1008.6mb 55f
4:48pm 10 14 mph 1008.5mb 56f
4:42pm 11 16 mph 1008.4mb 57f
4:36pm 11 16 mph 1008.4mb 56f
4:30pm 13 16 mph 1008.4mb 56f
4:24pm 13 15 mph 1008.4mb 57f
4:18pm 13 16 mph 1008.4mb 57f
4:12pm 10 15 mph 1008.5mb 57f
4:06pm 10 15 mph 1008.5mb 57f
4:00pm 8 15 mph 1008.4mb 58f
3:54pm 10 14 mph 1008.4mb 58f
3:48pm 10 15 mph 1008.3mb 58f
3:42pm 13 15 mph 1008.3mb 58f
3:36pm 10 15 mph 1008.3mb 58f
3:30pm 11 18 mph 1008.3mb 58f
3:24pm 14 20 mph 1008.4mb 58f
3:18pm 10 18 mph 1008.4mb 58f
3:12pm 10 17 mph 1008.4mb 58f
3:06pm 15 18 mph 1008.4mb 58f
3:00pm 13 16 mph 1008.4mb 58f
2:54pm 13 14 mph 1008.4mb 58f
2:48pm 13 16 mph 1008.4mb 58f
2:42pm 11 17 mph 1008.4mb 58f
2:36pm 14 18 mph 1008.4mb 58f
2:30pm 13 16 mph 1008.4mb 58f
2:24pm 14 17 mph 1008.4mb 58f
2:18pm 14 18 mph 1008.5mb 58f
2:12pm 9 17 mph 1008.5mb 58f
2:06pm 14 21 mph 1008.6mb 58f
2:00pm 10 15 mph 1008.6mb 58f
1:54pm 10 16 mph 1008.7mb 58f
1:48pm 14 20 mph 1008.8mb 58f
1:42pm 15 21 mph 1008.8mb 58f
1:36pm 11 16 mph 1008.9mb 58f
1:30pm 14 18 mph 1008.9mb 58f
1:24pm 15 18 mph 1009mb 58f
1:18pm 15 22 mph 1009.1mb 58f
1:12pm 14 22 mph 1009.1mb 58f
1:06pm 13 20 mph 1009.2mb 58f
1:00pm 14 18 mph 1009.1mb 58f
12:54pm 17 24 mph 1009.2mb 58f
12:48pm 14 23 mph 1009mb 58f
12:42pm 15 20 mph 1009.1mb 59f
12:36pm 15 21 mph 1009.2mb 58f
12:30pm 13 17 mph 1009.3mb 58f
12:24pm 15 17 mph 1009.4mb 58f
12:18pm 10 18 mph 1009.5mb 58f
12:12pm 14 18 mph 1009.6mb 58f
12:06pm 11 17 mph 1009.8mb 58f
12:00pm 17 21 mph 1009.9mb 58f
11:54am 13 17 mph 1010mb 58f
11:48am 10 17 mph 1010.2mb 57f
11:42am 10 15 mph 1010.3mb 57f
11:36am 13 18 mph 1010.4mb 57f
11:30am 13 20 mph 1010.4mb 56f
11:24am 14 17 mph 1010.5mb 56f
11:18am 13 17 mph 1010.5mb 56f
11:12am 11 17 mph 1010.6mb 56f
11:06am 11 17 mph 1010.7mb 56f
11:00am 11 17 mph 1010.7mb 56f
10:54am 11 21 mph 1010.8mb 56f
10:48am 13 17 mph 1010.9mb 55f
10:42am 14 20 mph 1010.9mb 55f
10:36am 11 20 mph 1011mb 55f
10:30am 14 22 mph 1011mb 56f
10:24am 9 17 mph 1011.2mb 56f
10:18am 11 15 mph 1011.3mb 56f
10:12am 13 20 mph 1011.5mb 55f
10:06am 15 17 mph 1011.5mb 55f
10:00am 9 14 mph 1011.5mb 55f
9:54am 9 16 mph 1011.5mb 54f
9:48am 10 14 mph 1011.4mb 55f
9:42am 9 17 mph 1011.5mb 54f
9:36am 9 14 mph 1011.6mb 53f
9:30am 13 20 mph 1011.7mb 53f
9:24am 13 20 mph 1011.6mb 53f
9:18am 13 18 mph 1011.6mb 53f
9:12am 15 22 mph 1011.8mb 53f
9:06am 15 17 mph 1011.7mb 52f
9:00am 11 21 mph 1011.8mb 52f
8:54am 14 22 mph 1011.9mb 52f
8:48am 14 22 mph 1012mb 51f
8:42am 14 21 mph 1012mb 51f
8:36am 15 18 mph 1012mb 51f
8:30am 14 20 mph 1012.3mb 51f
8:24am 13 17 mph 1012.2mb 51f
8:18am 10 20 mph 1012.3mb 51f
8:12am 15 21 mph 1012.2mb 50f
8:06am 13 16 mph 1012.3mb 50f
8:00am 14 16 mph 1012.4mb 50f
7:54am 10 16 mph 1012.3mb 50f
7:48am 13 17 mph 1012.3mb 50f
7:42am 14 17 mph 1012.3mb 50f
7:36am 13 20 mph 1012.1mb 50f
7:30am 11 16 mph 1012.1mb 50f
7:24am 11 15 mph 1012.1mb 50f
7:18am 14 17 mph 1012.1mb 50f
7:12am 14 18 mph 1012.1mb 50f
7:06am 13 17 mph 1012.2mb 50f
7:00am 13 16 mph 1012.1mb 50f
6:54am 9 13 mph 1012.3mb 50f
6:48am 11 16 mph 1012.3mb 50f
6:42am 10 13 mph 1012.4mb 50f
6:36am 10 15 mph 1012.4mb 50f
6:30am 10 15 mph 1012.6mb 50f
6:24am 11 17 mph 1012.5mb 49f
6:18am 11 15 mph 1012.5mb 49f
6:12am 10 15 mph 1012.6mb 49f
6:06am 13 16 mph 1012.6mb 50f
6:00am 11 18 mph 1012.6mb 50f
5:54am 11 18 mph 1012.6mb 50f
5:48am 14 17 mph 1012.7mb 50f
5:42am 13 17 mph 1012.7mb 50f
5:36am 13 16 mph 1012.8mb 50f
5:30am 13 20 mph 1012.9mb 50f
5:24am 11 17 mph 1012.9mb 49f
5:18am 10 17 mph 1013mb 49f
5:06am 11 16 mph 1012.9mb 49f
5:00am 11 15 mph 1012.8mb 49f
4:54am 14 17 mph 1012.8mb 49f
4:48am 11 15 mph 1012.9mb 49f
4:42am 10 14 mph 1012.9mb 49f
4:36am 10 14 mph 1013mb 49f
4:30am 11 14 mph 1013.1mb 49f
4:24am 10 15 mph 1013mb 49f
4:18am 13 16 mph 1013.1mb 49f
4:12am 13 18 mph 1013.2mb 49f
4:06am 13 16 mph 1013.3mb 49f
4:00am 14 17 mph 1013.3mb 49f
3:54am 14 16 mph 1013.5mb 49f
3:48am 14 17 mph 1013.6mb 49f
3:42am 13 16 mph 1013.7mb 48f
3:36am 14 17 mph 1013.7mb 48f
3:30am 14 16 mph 1013.8mb 48f
3:24am 13 16 mph 1013.9mb 48f
3:18am 13 16 mph 1014mb 48f
3:12am 15 17 mph 1014mb 48f
3:06am 14 17 mph 1014.1mb 48f
3:00am 14 16 mph 1014.3mb 48f
2:54am 13 16 mph 1014.4mb 48f
2:48am 13 15 mph 1014.4mb 48f
2:42am 11 14 mph 1014.5mb 48f
2:36am 11 15 mph 1014.6mb 48f
2:30am 13 15 mph 1014.7mb 48f
2:24am 11 15 mph 1014.8mb 48f
2:18am 11 15 mph 1014.8mb 48f
2:12am 11 14 mph 1014.9mb 48f
2:06am 11 14 mph 1014.9mb 48f
2:00am 11 14 mph 1014.9mb 48f
1:54am 10 14 mph 1014.9mb 48f
1:48am 10 14 mph 1014.9mb 48f
1:42am 10 14 mph 1015mb 48f
1:36am 9 11 mph 1015mb 48f
1:30am 10 14 mph 1015mb 48f
1:24am 9 13 mph 1015mb 48f
1:18am 10 14 mph 1015.1mb 48f
1:12am 11 14 mph 1015.1mb 48f
1:06am 11 14 mph 1015.1mb 48f
1:00am 10 13 mph 1015.2mb 48f
12:54am 10 15 mph 1015.3mb 48f
12:48am 10 14 mph 1015.2mb 48f
12:42am 11 14 mph 1015.2mb 48f
12:36am 10 15 mph 1015.2mb 48f
12:30am 10 13 mph 1015.2mb 48f
12:24am 11 14 mph 1015.2mb 48f
12:18am 10 15 mph 1015.2mb 48f
12:12am 11 15 mph 1015.2mb 47f
12:06am 13 14 mph 1015.1mb 48f
12:00am 13 15 mph 1015.1mb 48f
Sun 10/19 11:48pm 13 15 mph 1015.1mb 47f
11:42pm 13 15 mph 1015.1mb 47f
11:36pm 13 15 mph 1015.1mb 47f
11:30pm 13 15 mph 1015mb 47f
11:24pm 11 14 mph 1015.1mb 47f
11:18pm 13 15 mph 1015.2mb 47f
11:12pm 13 15 mph 1015.3mb 47f
11:06pm 11 14 mph 1015.4mb 47f
11:00pm 11 14 mph 1015.5mb 47f
10:54pm 11 14 mph 1015.5mb 47f
10:48pm 11 15 mph 1015.5mb 47f
10:30pm 11 15 mph 1015.7mb 47f
10:24pm 11 14 mph 1015.7mb 47f
10:18pm 11 14 mph 1015.7mb 47f
10:12pm 13 15 mph 1015.7mb 47f
10:06pm 11 14 mph 1015.8mb 47f
10:00pm 11 15 mph 1015.8mb 47f
9:54pm 11 15 mph 1015.8mb 47f
9:48pm 11 15 mph 1015.8mb 47f
9:42pm 11 14 mph 1015.8mb 47f
9:36pm 11 16 mph 1015.9mb 47f
9:30pm 11 14 mph 1015.9mb -
9:24pm 11 15 mph 1015.9mb -
9:18pm 13 15 mph 1016mb 47f
9:12pm 10 14 mph 1016mb 47f
9:06pm 11 14 mph 1016.1mb 47f
9:00pm 10 13 mph 1016.1mb 47f
8:54pm 10 13 mph 1016.2mb 47f
8:48pm 10 13 mph 1016.3mb 48f
8:42pm 9 11 mph 1016.4mb 48f
8:36pm 8 11 mph 1016.4mb 48f
8:30pm 9 10 mph 1016.5mb 47f
8:24pm 9 13 mph 1016.5mb 48f
8:18pm 9 11 mph 1016.6mb 47f
8:12pm 9 10 mph 1016.6mb 47f
8:06pm 9 13 mph 1016.7mb 47f
8:00pm 9 11 mph 1016.7mb 47f
7:54pm 8 11 mph 1016.8mb 47f
7:48pm 8 9 mph 1016.8mb 47f
7:42pm 8 9 mph 1016.8mb 47f
7:36pm 8 9 mph 1016.8mb 47f
7:30pm 8
mph
1016.9mb 48f
7:24pm 8
mph
1017mb 48f
7:18pm 7 8 mph 1017mb 48f
7:12pm 8
mph
1017.1mb 48f
7:06pm 8
mph
1017.2mb 48f
7:00pm 8 9 mph 1017.2mb 48f
6:54pm 8 9 mph 1017.3mb 48f
6:48pm 8 9 mph 1017.4mb 49f
6:42pm 7 8 mph 1017.4mb 49f
6:36pm 7 8 mph 1017.4mb 49f
6:30pm 6 7 mph 1017.4mb 48f
6:24pm 6 7 mph 1017.5mb 48f
6:18pm 6 7 mph 1017.5mb 48f
6:12pm 7 9 mph 1017.5mb 48f
6:06pm 7 8 mph 1017.5mb 49f
6:00pm 7 9 mph 1017.6mb 49f
5:54pm 9 13 mph 1017.5mb 49f
5:48pm 11 14 mph 1017.6mb 49f
5:42pm 14 16 mph 1017.5mb 50f
5:36pm 11 16 mph 1017.5mb 50f
5:30pm 10 16 mph 1017.7mb 50f
5:24pm 11 14 mph 1017.7mb 50f
5:18pm 11 17 mph 1017.8mb 50f
5:12pm 11 15 mph 1017.8mb 50f
5:06pm 13 16 mph 1017.8mb 50f
5:00pm 14 16 mph 1017.8mb 50f
4:54pm 13 15 mph 1017.9mb 50f
4:48pm 13 16 mph 1018mb 51f
4:42pm 14 16 mph 1018mb 51f
4:36pm 14 16 mph 1018mb 51f
4:30pm 14 16 mph 1018mb 51f
4:24pm 13 16 mph 1018mb 51f
4:18pm 14 17 mph 1018.1mb 51f
4:12pm 14 16 mph 1018.1mb 51f
4:06pm 11 16 mph 1018.2mb 51f
4:00pm 14 16 mph 1018.3mb 51f
3:54pm 13 16 mph 1018.3mb 51f
3:48pm 13 17 mph 1018.4mb 51f
3:42pm 14 17 mph 1018.4mb 51f
3:36pm 15 17 mph 1018.4mb 51f
3:30pm 15 17 mph 1018.5mb 51f
3:24pm 13 17 mph 1018.6mb 51f
3:18pm 13 18 mph 1018.7mb 51f
3:12pm 14 16 mph 1018.7mb 51f
3:06pm 15 17 mph 1018.8mb 51f
3:00pm 13 16 mph 1018.9mb 51f
2:54pm 11 17 mph 1018.9mb 52f
2:48pm 14 17 mph 1019mb 51f
2:42pm 16 20 mph 1019mb 52f
2:36pm 16 20 mph 1019mb 51f
2:30pm 15 20 mph 1019.1mb 52f
2:24pm 13 17 mph 1019.2mb 51f
2:18pm 13 20 mph 1019.3mb 51f
2:12pm 14 17 mph 1019.3mb 51f
2:06pm 14 16 mph 1019.5mb 51f
2:00pm 14 17 mph 1019.5mb 52f
1:54pm 14 16 mph 1019.6mb 51f
1:48pm 14 20 mph 1019.6mb 52f
1:42pm 11 17 mph 1019.7mb 51f
1:36pm 15 17 mph 1019.8mb 51f
1:30pm 17 20 mph 1019.9mb 50f
1:24pm 15 17 mph 1020mb 51f
1:18pm 14 17 mph 1019.9mb 51f
1:12pm 13 16 mph 1020.1mb 49f
1:06pm 15 18 mph 1020.1mb 50f
1:00pm 14 16 mph 1020.2mb 49f
12:54pm 14 16 mph 1020.2mb 51f
12:48pm 13 17 mph 1020.3mb 50f
12:42pm 14 18 mph 1020.3mb 50f
12:36pm 11 17 mph 1020.4mb 50f
12:30pm 13 17 mph 1020.4mb 51f
12:24pm 14 17 mph 1020.5mb 51f
12:18pm 13 15 mph 1020.5mb 49f
12:12pm 13 17 mph 1020.5mb 49f
12:06pm 13 15 mph 1020.5mb 50f
12:00pm 14 17 mph 1020.6mb 49f
11:54am 14 17 mph 1020.6mb 49f
11:48am 13 17 mph 1020.7mb 49f
11:42am 14 17 mph 1020.6mb 49f
11:36am 10 15 mph 1020.6mb 51f
11:30am 13 15 mph 1020.6mb 50f
11:24am 9 13 mph 1020.6mb 49f
11:18am 11 15 mph 1020.6mb 49f
11:12am 10 13 mph 1020.5mb 49f
11:06am 8 14 mph 1020.5mb 49f
11:00am 10 13 mph 1020.5mb 49f
10:54am 10 13 mph 1020.5mb 49f
10:48am 9 13 mph 1020.5mb 50f
10:42am 10 14 mph 1020.5mb 50f
10:36am 8 11 mph 1020.5mb 50f
10:30am 10 13 mph 1020.6mb 50f
10:24am 10 13 mph 1020.6mb 50f
10:18am 10 14 mph 1020.7mb 49f
10:12am 10 14 mph 1020.6mb 50f
10:06am 8 13 mph 1020.6mb 48f
10:00am 10 14 mph 1020.7mb 49f
9:54am 10 16 mph 1020.8mb 49f
9:48am 11 15 mph 1020.9mb 48f
9:42am 11 14 mph 1020.9mb 47f
9:36am 15 17 mph 1021mb 48f
9:30am 14 18 mph 1021mb 47f
9:24am 15 18 mph 1020.9mb 47f
9:18am 13 15 mph 1020.8mb 48f
9:12am 11 15 mph 1020.7mb 47f
9:06am 15 18 mph 1020.7mb 48f
9:00am 14 16 mph 1020.6mb 48f
8:54am 13 15 mph 1020.5mb 48f
8:48am 10 15 mph 1020.4mb 48f
8:42am 14 16 mph 1020.4mb 48f
8:36am 13 18 mph 1020.3mb 48f
8:30am 14 17 mph 1020.4mb 48f
8:24am 16 20 mph 1020.3mb 48f
8:18am 13 16 mph 1020.3mb 47f
8:12am 11 15 mph 1020.2mb 47f
8:06am 13 16 mph 1020.2mb 47f
8:00am 14 17 mph 1020.1mb 47f
7:54am 13 16 mph 1020.1mb 47f
7:48am 16 21 mph 1020.1mb 47f
7:42am 16 20 mph 1020.1mb 47f
7:36am 17 20 mph 1020mb 47f
7:30am 11 17 mph 1019.9mb 47f
7:24am 15 20 mph 1019.8mb 47f
7:18am 17 20 mph 1019.7mb 47f
7:12am  -  mph 1019.6mb 47f
7:06am  -  mph 1019.6mb 46f
7:00am  -  mph 1019.6mb 46f
6:54am  -  mph 1019.5mb 47f
4:12am  -  mph - 47f
4:06am 20 25 mph 1018.1mb 47f
4:00am 23 28 mph 1018.1mb 47f
3:54am 21 25 mph 1018mb 48f
3:48am 20 24 mph 1017.9mb 47f
3:42am 21 24 mph 1017.9mb 47f
3:36am 14 20 mph 1017.8mb 47f
3:30am 17 24 mph 1017.8mb 47f
3:24am 18 24 mph 1017.7mb 48f
3:18am 21 29 mph 1017.7mb 47f
3:12am 21 24 mph 1017.6mb 47f
3:06am 18 22 mph 1017.6mb 47f
3:00am 16 23 mph 1017.6mb 47f
2:54am 16 23 mph 1017.5mb 47f
2:48am 20 24 mph 1017.4mb 47f
2:42am 22 25 mph 1017.4mb 47f
2:36am 20 25 mph 1017.3mb 48f
2:30am 21 24 mph 1017.2mb 48f
2:24am 21 24 mph 1017.3mb 48f
2:18am 21 24 mph 1017.2mb 47f
2:12am 21 24 mph 1017.2mb 48f
2:06am 18 24 mph 1017.2mb 48f
2:00am 22 24 mph 1017.2mb 48f
1:54am 18 24 mph 1017.3mb 47f
1:48am 24 26 mph 1017.2mb 48f
1:42am 22 26 mph 1017.2mb 48f
1:36am 23 29 mph 1017.2mb 48f
1:30am 22 28 mph 1017.1mb 48f
1:24am 21 24 mph 1017.2mb 48f
1:18am 21 24 mph 1017.2mb 47f
1:12am 20 25 mph 1017.2mb 48f
1:06am 22 26 mph 1017.2mb 48f
1:00am 21 24 mph 1017.1mb 48f
12:54am 21 28 mph 1017.1mb 48f
12:48am 22 25 mph 1017.1mb 48f
12:42am 17 24 mph 1017.1mb 48f
12:36am 22 26 mph 1017.1mb 48f
12:30am 20 25 mph 1017mb 47f
12:24am 20 24 mph 1017.1mb 47f
12:18am 21 28 mph 1017mb 47f
12:12am 22 28 mph 1017mb 48f
12:06am 22 28 mph 1017mb 48f
12:00am 21 28 mph 1017mb 47f
Sat 10/18 11:54pm 24 29 mph 1016.9mb 47f
11:48pm 24 29 mph 1016.8mb 48f
11:42pm 23 28 mph 1016.8mb 48f
11:36pm 25 29 mph 1016.7mb 48f
11:30pm 22 28 mph 1016.7mb 47f
11:24pm 24 28 mph 1016.7mb 48f
11:18pm 22 25 mph 1016.7mb 48f
11:12pm 22 24 mph 1016.8mb 48f
11:06pm 22 29 mph 1016.9mb 48f
11:00pm 23 30 mph 1016.9mb 48f
10:54pm 25 30 mph 1016.9mb 48f
10:48pm 22 29 mph 1017mb 48f
10:42pm 21 28 mph 1017mb 47f
10:36pm 23 28 mph 1017mb 48f
10:30pm 23 29 mph 1017mb 48f
10:24pm 24 28 mph 1017mb 48f
10:18pm 25 30 mph 1017mb 48f
10:12pm 25 30 mph 1017mb 48f
10:06pm 28 30 mph 1016.9mb 48f
10:00pm 26 32 mph 1016.9mb 48f
9:54pm 26 31 mph 1016.8mb 48f
9:48pm 23 30 mph 1016.8mb 47f
9:42pm 25 30 mph 1016.8mb 48f
9:36pm 28 31 mph 1016.8mb 48f
9:30pm 26 32 mph 1016.7mb 49f
9:24pm 25 30 mph 1016.7mb 48f
9:18pm 26 36 mph 1016.6mb 49f
9:12pm 30 33 mph 1016.6mb 49f
9:06pm 29 32 mph 1016.6mb 49f
9:00pm 29 36 mph 1016.5mb 49f
8:54pm 26 33 mph 1016.4mb 49f
8:48pm 32 38 mph 1016.3mb 49f
8:42pm 29 32 mph 1016.2mb 49f
8:36pm 28 31 mph 1016.2mb 49f
8:30pm 24 34 mph 1016.1mb 49f
8:24pm 32 38 mph 1016mb 49f
8:18pm 29 34 mph 1015.9mb 49f
8:12pm 25 34 mph 1015.8mb 49f
8:06pm 30 33 mph 1015.6mb 50f
8:00pm 31 34 mph 1015.5mb 50f
7:54pm 31 34 mph 1015.4mb 50f
7:48pm 32 37 mph 1015.3mb 49f
7:42pm 33 37 mph 1015.1mb 49f
7:36pm 26 33 mph 1015mb 50f
7:30pm 26 33 mph 1014.9mb 50f
7:24pm 28 32 mph 1014.8mb 50f
7:18pm 29 33 mph 1014.7mb 50f
7:12pm 29 36 mph 1014.5mb 51f
7:06pm 29 34 mph 1014.5mb 51f
7:00pm 32 36 mph 1014.4mb 50f
6:54pm 26 33 mph 1014.4mb 49f
6:48pm 31 38 mph 1014.4mb 49f
6:42pm 31 34 mph 1014.2mb 51f
6:36pm 25 36 mph 1014.2mb 50f
6:30pm 30 34 mph 1014.1mb 50f
6:24pm 32 34 mph 1013.9mb 51f
6:18pm 30 36 mph 1013.8mb 51f
6:12pm 32 36 mph 1013.7mb 51f
6:06pm 29 34 mph 1013.6mb 51f
6:00pm 31 36 mph 1013.5mb 51f
5:54pm 32 36 mph 1013.4mb 50f
5:48pm 28 36 mph 1013.4mb 50f
5:42pm 29 34 mph 1013.3mb 50f
5:36pm 30 34 mph 1013.2mb 51f
5:30pm 30 34 mph 1013.1mb 51f
5:24pm 28 32 mph 1013mb 51f
5:18pm 26 32 mph 1012.9mb 51f
5:12pm 29 32 mph 1012.8mb 51f
5:06pm 28 32 mph 1012.7mb 51f
5:00pm 29 34 mph 1012.6mb 51f
4:54pm 29 34 mph 1012.6mb 51f
4:48pm 28 34 mph 1012.5mb 51f
4:42pm 31 34 mph 1012.4mb 50f
4:36pm 31 37 mph 1012.4mb 50f
4:30pm 28 31 mph 1012.3mb 51f
4:24pm 32 37 mph 1012.2mb 51f
4:18pm 28 36 mph 1012.2mb 50f
4:12pm 29 38 mph 1012.1mb 49f
4:06pm 29 36 mph 1011.9mb 50f
4:00pm 32 34 mph 1011.9mb 50f
3:54pm 31 36 mph 1011.8mb 50f
3:48pm 32 37 mph 1011.8mb 49f
3:42pm 29 36 mph 1011.7mb 50f
3:36pm 32 38 mph 1011.6mb 50f
3:30pm 29 36 mph 1011.5mb 50f
3:24pm 30 38 mph 1011.5mb 50f
3:18pm 31 37 mph 1011.3mb 51f
3:12pm 31 36 mph 1011.2mb 51f
3:06pm 31 36 mph 1011.1mb 52f
3:00pm 32 38 mph 1011.1mb 51f
2:54pm 32 37 mph 1011.1mb 51f
2:48pm 31 36 mph 1011.1mb 51f
2:42pm 33 37 mph 1011.1mb 51f
2:36pm 32 36 mph 1011mb 51f
2:30pm 32 37 mph 1010.9mb 51f
2:24pm 29 33 mph 1010.9mb 51f
2:18pm 28 31 mph 1010.9mb 51f
2:12pm 28 34 mph 1010.7mb 51f
2:06pm 30 36 mph 1010.6mb 51f
2:00pm 29 33 mph 1010.6mb 51f
1:54pm 30 33 mph 1010.5mb 51f
1:48pm 28 33 mph 1010.4mb 51f
1:42pm 28 31 mph 1010.3mb 51f
1:36pm 26 30 mph 1010.3mb 51f
1:30pm 28 30 mph 1010.3mb 52f
1:24pm 25 30 mph 1010.3mb 51f
1:18pm 25 30 mph 1010.2mb 51f
1:12pm 28 30 mph 1010.2mb 51f
1:06pm 25 29 mph 1010.1mb 51f
1:00pm 26 30 mph 1010.1mb 51f
12:54pm 25 31 mph 1010mb 51f
12:48pm 25 32 mph 1010mb 51f
12:42pm 26 30 mph 1010mb 51f
12:36pm 24 28 mph 1009.9mb 51f
12:30pm 23 29 mph 1009.9mb 51f
12:24pm 24 30 mph 1009.9mb 51f
12:18pm 28 31 mph 1009.9mb 51f
12:12pm 26 30 mph 1009.8mb 51f
12:06pm 23 29 mph 1009.8mb 51f
12:00pm 23 30 mph 1009.7mb 51f
11:54am 25 28 mph 1009.7mb 51f
11:48am 22 26 mph 1009.7mb 51f
11:42am 24 26 mph 1009.6mb 51f
11:36am 22 24 mph 1009.6mb 51f
11:30am 23 25 mph 1009.5mb 51f
11:24am 21 24 mph 1009.4mb 51f
11:18am 21 28 mph 1009.3mb 51f
11:12am 23 28 mph 1009.3mb 51f
11:06am 24 31 mph 1009.2mb 51f
11:00am 25 29 mph 1009mb 51f
10:54am 23 29 mph 1008.9mb 51f
10:48am 25 30 mph 1008.9mb 51f
10:42am 24 28 mph 1008.8mb 51f
10:36am 23 30 mph 1008.7mb 50f
10:30am 23 26 mph 1008.7mb 51f
10:24am 22 28 mph 1008.7mb 51f
10:18am 24 26 mph 1008.6mb 51f
10:12am 23 28 mph 1008.5mb 50f
10:06am 24 29 mph 1008.5mb 50f
10:00am 23 26 mph 1008.4mb 50f
9:54am 22 28 mph 1008.4mb 50f
9:48am 23 26 mph 1008.4mb 50f
9:42am 24 28 mph 1008.3mb 50f
9:36am 24 28 mph 1008.2mb 51f
9:30am 25 30 mph 1008.2mb 51f
9:24am 28 30 mph 1008.1mb 51f
9:18am 28 32 mph 1008mb 50f
9:12am 28 31 mph 1008mb 51f
9:06am 24 31 mph 1007.9mb 51f
9:00am 25 31 mph 1007.9mb 51f
8:54am 25 32 mph 1007.8mb 51f
8:48am 26 31 mph 1007.7mb 51f
8:42am 26 31 mph 1007.6mb 51f
8:36am 25 30 mph 1007.5mb 51f
8:30am 24 32 mph 1007.5mb 50f
8:24am 25 29 mph 1007.4mb 51f
8:18am 26 31 mph 1007.3mb 51f
8:12am 28 32 mph 1007.3mb 51f
8:06am 29 32 mph 1007.2mb 50f
8:00am 28 31 mph 1007.1mb 50f
7:54am 29 33 mph 1006.9mb 50f
7:48am 31 36 mph 1006.9mb 51f
7:42am 28 33 mph 1006.9mb 51f
7:36am 24 31 mph 1006.8mb 50f
7:30am 28 32 mph 1006.6mb 51f
7:24am 26 30 mph 1006.4mb 50f
7:18am 26 33 mph 1006.3mb 51f
7:12am 29 33 mph 1006.3mb 50f
7:06am 28 34 mph 1006.3mb 50f
7:00am 28 34 mph 1006.1mb 51f
6:54am 26 32 mph 1006.1mb 50f
6:48am 28 32 mph 1006mb 50f
6:42am 31 34 mph 1006mb 50f
6:36am 25 33 mph 1005.9mb 50f
6:30am 29 36 mph 1005.8mb 50f
6:24am 26 32 mph 1005.7mb 49f
6:18am 26 32 mph 1005.7mb 49f
6:12am 24 34 mph 1005.6mb 49f
6:06am 29 32 mph 1005.6mb 49f
6:00am 31 37 mph 1005.5mb 49f
5:54am 29 34 mph 1005.5mb 49f
5:48am 26 31 mph 1005.4mb 50f
5:42am 26 34 mph 1005.3mb 50f
5:36am 29 32 mph 1005.2mb 50f
5:30am 28 33 mph 1005.1mb 50f
5:24am 30 34 mph 1005mb 51f
5:18am 25 29 mph 1004.9mb 51f
5:12am 30 34 mph 1004.8mb 51f
5:06am 30 38 mph 1004.8mb 50f
5:00am 31 38 mph 1004.6mb 50f
4:54am 28 33 mph 1004.5mb 51f
4:48am 28 31 mph 1004.6mb 50f
4:42am 26 31 mph 1004.5mb 50f
4:36am 29 32 mph 1004.4mb 50f
4:30am 30 37 mph 1004.2mb 50f
4:24am 28 31 mph 1004mb 51f
4:18am 25 36 mph 1003.9mb 51f
4:12am 30 34 mph 1004mb 50f
4:06am 29 34 mph 1003.8mb 51f
4:00am 26 32 mph 1003.8mb 51f
3:54am 30 33 mph 1003.6mb 51f
3:48am 29 34 mph 1003.4mb 51f
3:42am 30 34 mph 1003.4mb 52f
3:36am 30 34 mph 1003.3mb 52f
3:30am 32 37 mph 1003.1mb 52f
3:24am 29 34 mph 1002.9mb 52f
3:18am 31 37 mph 1002.8mb 53f
3:12am 32 37 mph 1002.7mb 53f
3:06am 29 39 mph 1002.5mb 54f
3:00am 34 40 mph 1002.3mb 54f
2:54am 33 38 mph 1002.3mb 54f
2:48am 37 41 mph 1002.2mb 54f
2:42am 32 38 mph 1002.1mb 54f
2:36am 36 38 mph 1002mb 54f
2:30am 29 37 mph 1002mb 54f
2:24am 33 38 mph 1002mb 55f
2:18am 34 43 mph 1002mb 56f
2:12am 31 34 mph 1001.9mb 56f
2:06am 31 36 mph 1001.9mb 56f
2:00am 32 36 mph 1002mb 56f
1:54am 30 36 mph 1001.9mb 56f
1:48am 32 38 mph 1002mb 57f
1:42am 32 36 mph 1002mb 57f
1:36am 31 37 mph 1002mb 56f
1:30am 33 40 mph 1002mb 56f
1:24am 34 39 mph 1002.1mb 56f
1:18am 33 38 mph 1002mb 56f
1:12am 33 39 mph 1002mb 56f
1:06am 37 39 mph 1002mb 57f
1:00am 37 40 mph 1001.9mb 57f
12:54am 31 38 mph 1001.8mb 57f
12:48am 33 43 mph 1001.9mb 58f
12:42am 33 40 mph 1001.8mb 58f
12:36am 39 43 mph 1001.7mb 58f
12:30am 38 44 mph 1001.7mb 58f
12:24am 34 44 mph 1001.7mb 58f
12:18am 33 39 mph 1001.7mb 57f
12:12am 37 43 mph 1001.7mb 57f
12:06am 37 39 mph 1001.7mb 57f
12:00am 31 40 mph 1001.7mb 57f
Fri 10/17 11:54pm 34 38 mph 1001.7mb 58f
11:48pm 29 39 mph 1001.8mb 58f
11:42pm 32 38 mph 1001.8mb 58f
11:36pm 33 40 mph 1001.8mb 57f
11:30pm 30 37 mph 1001.7mb 57f
11:24pm 31 36 mph 1001.7mb 57f
11:18pm 31 36 mph 1001.7mb 58f
11:12pm 31 34 mph 1001.8mb 58f
11:06pm 31 37 mph 1001.8mb 58f
11:00pm 32 37 mph 1001.9mb 58f
10:54pm 33 40 mph 1002mb 58f
10:48pm 31 36 mph 1001.9mb 58f
10:42pm 31 37 mph 1002.1mb 58f
10:36pm 31 39 mph 1002.2mb 58f
10:30pm 32 38 mph - -
10:24pm 34 41 mph - -
9:18pm  -  mph - 59f
9:12pm  -  mph - 60f
9:06pm  -  mph - 60f
9:00pm 33 37 mph 1001.9mb 60f
8:54pm 31 34 mph 1001.8mb 60f
8:48pm 31 39 mph 1001.8mb 60f
8:42pm 34 39 mph 1001.8mb 61f
8:36pm 34 40 mph 1001.7mb 61f
8:30pm 32 39 mph 1001.7mb 62f
8:24pm 34 40 mph 1001.6mb 62f
8:18pm 28 33 mph 1001.6mb 62f
8:12pm 26 30 mph 1001.5mb 62f
8:06pm 24 32 mph 1001.5mb 62f
8:00pm 29 32 mph 1001.4mb 62f
7:54pm 25 29 mph 1001.3mb 63f
7:48pm 26 30 mph 1001.3mb 63f
7:42pm 26 36 mph 1001.3mb 63f
7:36pm 33 40 mph 1001.3mb 63f
7:30pm 29 31 mph 1001.3mb 63f
7:24pm 23 26 mph 1001.3mb 63f
7:18pm 22 29 mph 1001.2mb 63f
7:12pm 25 30 mph 1001.3mb 63f
7:06pm 24 26 mph 1001.3mb 63f
7:00pm 22 24 mph 1001.2mb 63f
6:54pm 21 24 mph 1001.2mb 63f
6:48pm 20 22 mph 1001.1mb 63f
6:42pm 22 24 mph 1001.1mb 63f
6:36pm 21 23 mph 1001.1mb 63f
6:30pm 21 23 mph 1001mb 63f
6:24pm 20 22 mph 1001mb 63f
6:18pm 21 23 mph 1001mb 63f
6:12pm 22 23 mph 1000.9mb 63f
6:06pm 21 23 mph 1000.8mb 63f
6:00pm 20 22 mph 1000.8mb 63f
5:54pm 20 22 mph 1000.7mb 63f
5:48pm 18 22 mph 1000.6mb 64f
5:42pm 20 22 mph 1000.5mb 64f
5:36pm 20 21 mph 1000.5mb 64f
5:30pm 18 20 mph 1000.4mb 64f
5:24pm 18 20 mph 1000.4mb 64f
5:18pm 17 20 mph 1000.3mb 64f
5:12pm 17 18 mph 1000.3mb 64f
5:06pm 17 18 mph 1000.3mb 64f
5:00pm 17 20 mph 1000.2mb 64f
4:54pm 17 20 mph 1000.2mb 64f
4:48pm 20 23 mph 1000.1mb 64f
4:42pm 20 23 mph 1000.2mb 64f
4:36pm 20 22 mph 1000.1mb 64f
4:30pm 21 23 mph 1000.1mb 64f
4:24pm 18 21 mph 1000.1mb 64f
4:18pm 17 21 mph 1000.2mb 64f
4:12pm 16 18 mph 1000.2mb 65f
4:06pm 16 17 mph 1000.2mb 65f
4:00pm 15 16 mph 1000.1mb 65f
3:54pm 16 18 mph 1000mb 65f
3:48pm 17 18 mph 1000mb 66f
3:42pm 17 18 mph 999.9mb 65f
3:36pm 16 18 mph 999.9mb 65f
3:30pm 14 20 mph 999.8mb 65f
3:24pm 16 18 mph 999.8mb 65f
3:18pm 16 17 mph 999.8mb 65f
3:12pm 16 20 mph 999.8mb 64f
3:06pm 16 20 mph 999.9mb 64f
3:00pm 16 18 mph 999.9mb 65f
2:54pm 14 18 mph 999.8mb 65f
2:48pm 15 17 mph 999.7mb 65f
2:42pm 13 16 mph 999.7mb 65f
2:36pm 13 15 mph 999.5mb 65f
2:30pm 10 13 mph 999.6mb 64f
2:24pm 13 15 mph 999.6mb 64f
2:18pm 13 14 mph 999.6mb 64f
2:12pm 11 15 mph 999.6mb 64f
2:06pm 13 20 mph 999.5mb 64f
2:00pm 16 21 mph 999.5mb 64f
1:54pm 13 21 mph 999.6mb 64f
1:48pm 18 24 mph 999.6mb 64f
1:42pm 15 22 mph 999.6mb 64f
1:36pm 16 22 mph 999.6mb 64f
1:30pm 13 21 mph 999.5mb 64f
1:24pm 13 17 mph 999.5mb 64f
1:18pm 15 18 mph 999.5mb 64f
1:12pm 15 23 mph 999.5mb 64f
1:06pm 14 18 mph 999.5mb 64f
1:00pm 17 22 mph 999.6mb 64f
12:54pm 14 23 mph 999.7mb 63f
12:48pm 15 21 mph 999.7mb 63f
12:42pm 13 20 mph 999.7mb 62f
12:36pm 13 16 mph 999.8mb 62f
12:30pm 15 20 mph 999.9mb 62f
12:24pm 20 24 mph 999.9mb 62f
12:18pm 13 20 mph 1000mb 62f
12:12pm 16 20 mph 1000.2mb 61f
12:06pm 15 22 mph 1000.2mb 62f
12:00pm 14 24 mph 1000.3mb 61f
11:54am 15 22 mph 1000.4mb 61f
11:48am 15 22 mph 1000.6mb 61f
11:42am 16 28 mph 1000.7mb 61f
11:36am 21 28 mph 1000.8mb 61f
11:30am 22 31 mph 1001mb 60f
11:24am 17 24 mph 1001mb 61f
11:18am 15 23 mph 1001.2mb 61f
11:12am 10 29 mph 1001.2mb 61f
11:06am 18 24 mph 1001.3mb 60f
11:00am 14 20 mph 1001.3mb 60f
10:54am 15 28 mph 1001.4mb 61f
10:48am 18 28 mph 1001.5mb 60f
10:42am 21 25 mph 1001.5mb 60f
10:36am 14 21 mph 1001.8mb 60f
10:30am 14 20 mph 1001.9mb 60f
10:24am 16 23 mph 1002mb 60f
10:18am 18 26 mph 1002.1mb 60f
10:12am 18 23 mph 1002.2mb 60f
10:06am 15 29 mph 1002.3mb 60f
10:00am 20 29 mph 1002.5mb 60f
9:54am 16 25 mph 1002.6mb 60f
9:48am 17 24 mph 1002.6mb 60f
9:42am 16 25 mph 1002.7mb 59f
9:36am 16 22 mph 1002.8mb 59f
9:30am 21 26 mph 1002.9mb 59f
9:24am 17 28 mph 1003mb 58f
9:18am 18 28 mph 1003mb 58f
9:12am 17 25 mph 1003mb 58f
9:06am 20 28 mph 1003mb 58f
9:00am 20 23 mph 1003.1mb 58f
8:54am 20 26 mph 1003.1mb 58f
8:48am 22 29 mph 1003.1mb 58f
8:42am 17 25 mph 1003mb 58f
8:36am 16 25 mph 1002.9mb 58f
8:30am 15 20 mph 1002.8mb 58f
8:24am 15 23 mph 1002.8mb 58f
8:18am 16 28 mph 1002.8mb 57f
8:12am 15 21 mph 1002.8mb 57f
8:06am 15 21 mph 1002.9mb 57f
8:00am 15 21 mph 1003mb 57f
7:54am 16 23 mph 1003.1mb 57f
7:48am 16 22 mph 1003.1mb 57f
7:42am 14 21 mph 1003.1mb 57f
7:36am 13 21 mph 1003.2mb 56f
7:30am 15 20 mph 1003.2mb 56f
7:24am 15 20 mph 1003.3mb 56f
7:18am 14 21 mph 1003.3mb 56f
7:12am 14 18 mph 1003.3mb 56f
7:06am 13 17 mph 1003.2mb 56f
7:00am 13 17 mph 1003.2mb 56f
6:54am 14 18 mph 1003.2mb 56f
6:48am 14 18 mph 1003.2mb 56f
6:42am 14 18 mph 1003.2mb 56f
6:36am 14 18 mph 1003.1mb 57f
6:30am 13 17 mph 1003mb 57f
6:24am 13 16 mph 1003.1mb 57f
6:18am 14 20 mph 1003.1mb 57f
6:12am 13 22 mph 1003.1mb 57f
6:06am 14 25 mph 1003.2mb 57f
6:00am 15 22 mph 1003.3mb 57f
5:54am 15 22 mph 1003.3mb 57f
5:48am 17 21 mph 1003.3mb 57f